Pismo Beach, CA (93448)

12:41 AM PDT on July 25, 2016 (GMT -0700)
North West Grover Beach | | Change Station

Elev 92 ft 35.13 °N, 120.63 °W | Updated 10 minutes ago

Scattered Clouds
Scattered Clouds
52.7 °F
Feels Like 52.7 °F
N
0.0
Wind Variable Wind from SW

Today
High -- | Low -- °F
--% Chance of Precip.
Yesterday
High -- | Low -- °F
Precip. -- in
Pressure 29.93 in
Visibility 8.0 miles
Clouds Scattered Clouds 300 ft
Dew Point 52 °F
Humidity 99%
Rainfall 0.00 in
Snow Depth Not available.
6:06 AM 8:10 PM
Waning Gibbous, 68% visible
SPECI KSBP 250737Z 00000KT 8SM SCT003 13/11 A2993 RMK AO2 T01280111
Pressure 29.93 in
Visibility 8.0 miles
Clouds Scattered Clouds 300 ft
Dew Point 52 °F
Humidity 99%
Rainfall 0.00 in
Snow Depth Not available.
6:06 AM 8:10 PM
Waning Gibbous, 68% visible
SPECI KSBP 250737Z 00000KT 8SM SCT003 13/11 A2993 RMK AO2 T01280111

10-Day Weather Forecast

Almanac

Astronomy

Jul. 25, 2016 Rise Set
Actual Time
Civil Twilight
Nautical Twilight
Astronomical Twilight
Moon
Length of Visible Light
Length of Day
Tomorrow will be .
, % of the Moon is Illuminated

Today's Extremes

State Highs State Lows

Community

WunderPhotos

Upload Photos

1,927,274 photos uploaded!

WunderBlog® & News

Nearby

Air Quality

  Air Quality AQ Index Pollutant
Not available.

Snow Depth

Station Depth Elevation

Earthquake Activity

City Distance Mag. Time & Date
Minimum magnitude displayed is 2.5.

Coastal Water Temperatures

Place Temperature

Stations

Nearby Weather Stations

Station Location Temp. Windchill Dew Point Humidity Wind Precip. Elev Updated Type
                   

Watches & Warnings

There are currently no watches in effect.